Time;durP1;ratioP1;P1;durP2;ratioP2;P2;SDS_P1;SDS_P2;PMS_P1;PMS_P2;Temp;Humidity;BMP_temperature;BMP_pressure;BME280_temperature;BME280_humidity;BME280_pressure;Samples;Min_cycle;Max_cycle;Signal;HPM_P1;HPM_P2
2022/05/09 00:00:28;;;;;;;6.40;2.63;;;18.40;91.40;;;;;;5049270;28;20049;-72
2022/05/09 00:02:56;;;;;;;4.68;2.40;;;18.50;91.40;;;;;;5051395;28;20129;-72
2022/05/09 00:05:24;;;;;;;4.53;2.78;;;18.50;91.30;;;;;;5035972;28;20041;-73
2022/05/09 00:07:52;;;;;;;4.28;2.40;;;18.60;91.20;;;;;;5032704;28;20091;-73
2022/05/09 00:10:20;;;;;;;5.15;2.75;;;18.50;91.20;;;;;;5013321;28;20046;-72
2022/05/09 00:12:47;;;;;;;6.35;2.63;;;18.60;91.30;;;;;;5049517;28;20073;-73
2022/05/09 00:15:15;;;;;;;5.85;2.88;;;18.60;91.20;;;;;;5026130;28;20383;-73
2022/05/09 00:17:41;;;;;;;5.13;2.72;;;18.50;91.30;;;;;;5015328;28;20116;-72
2022/05/09 00:20:08;;;;;;;4.50;2.45;;;18.50;91.60;;;;;;5051014;28;20558;-73
2022/05/09 00:22:46;;;;;;;6.50;2.40;;;18.40;91.70;;;;;;5020463;28;20117;-72
2022/05/09 00:25:12;;;;;;;8.10;2.50;;;18.40;91.70;;;;;;5016633;28;20390;-72
2022/05/09 00:27:38;;;;;;;5.57;2.33;;;18.30;91.70;;;;;;5050430;28;20053;-72
2022/05/09 00:30:06;;;;;;;4.30;2.30;;;18.20;91.80;;;;;;5048806;28;20524;-72
2022/05/09 00:32:31;;;;;;;5.28;2.40;;;18.20;92.00;;;;;;5021788;28;20142;-73
2022/05/09 00:34:58;;;;;;;4.75;2.60;;;18.20;91.90;;;;;;5032317;28;20038;-72
2022/05/09 00:37:24;;;;;;;4.50;2.67;;;18.10;92.00;;;;;;5004814;28;20117;-73
2022/05/09 00:39:50;;;;;;;3.42;2.47;;;18.10;92.10;;;;;;5015381;28;20029;-72
2022/05/09 00:42:17;;;;;;;3.72;2.40;;;18.00;92.10;;;;;;5023111;28;20034;-73
2022/05/09 00:44:42;;;;;;;7.90;3.35;;;18.00;92.30;;;;;;5017858;28;20055;-72
2022/05/09 00:47:09;;;;;;;4.07;2.63;;;18.00;92.40;;;;;;5022097;28;20485;-72
2022/05/09 00:49:50;;;;;;;4.07;2.60;;;18.00;92.40;;;;;;5047103;28;20029;-72
2022/05/09 00:52:33;;;;;;;5.60;2.85;;;18.00;92.50;;;;;;5048731;28;20049;-72
2022/05/09 00:55:17;;;;;;;5.40;3.17;;;18.00;92.60;;;;;;5051560;28;20474;-72
2022/05/09 00:58:02;;;;;;;4.97;2.88;;;18.00;92.90;;;;;;5051651;28;20041;-72
2022/05/09 01:00:28;;;;;;;9.43;2.95;;;18.00;92.90;;;;;;5020722;28;20104;-72
2022/05/09 01:03:27;;;;;;;6.85;3.13;;;18.00;93.00;;;;;;5023845;28;20142;-73
2022/05/09 01:05:53;;;;;;;6.75;3.00;;;18.00;93.00;;;;;;5000219;28;20052;-73
2022/05/09 01:08:21;;;;;;;5.55;2.78;;;18.10;93.20;;;;;;5014954;28;20040;-73
2022/05/09 01:10:48;;;;;;;7.40;2.58;;;18.10;93.30;;;;;;5021846;28;20052;-71
2022/05/09 01:13:17;;;;;;;4.05;2.47;;;18.10;93.30;;;;;;5030480;28;20132;-72
2022/05/09 01:15:48;;;;;;;5.72;2.60;;;18.10;93.40;;;;;;5015880;28;20537;-72
2022/05/09 01:18:16;;;;;;;4.53;2.40;;;18.10;93.50;;;;;;5012922;28;20038;-71
2022/05/09 01:20:43;;;;;;;5.10;2.85;;;18.10;93.50;;;;;;5050595;28;20030;-73
2022/05/09 01:23:10;;;;;;;7.65;2.90;;;18.10;93.60;;;;;;5050439;28;20046;-72
2022/05/09 01:25:37;;;;;;;5.28;2.63;;;18.00;93.60;;;;;;5022138;28;20516;-73
2022/05/09 01:28:03;;;;;;;7.47;3.17;;;18.10;93.80;;;;;;5017067;28;20409;-72
2022/05/09 01:30:45;;;;;;;6.72;3.08;;;18.10;93.80;;;;;;5018769;28;20501;-71
2022/05/09 01:33:24;;;;;;;8.37;3.73;;;18.10;93.90;;;;;;5017401;28;20080;-72
2022/05/09 01:35:59;;;;;;;5.10;3.25;;;18.10;94.00;;;;;;5015274;28;20045;-72
2022/05/09 01:38:38;;;;;;;5.97;3.25;;;18.10;94.10;;;;;;5010085;28;20038;-72
2022/05/09 01:41:05;;;;;;;5.80;3.10;;;18.20;94.20;;;;;;5016107;28;20103;-72
2022/05/09 01:43:55;;;;;;;7.28;3.42;;;18.20;94.30;;;;;;5012888;28;20107;-73
2022/05/09 01:46:27;;;;;;;9.30;3.63;;;18.30;94.60;;;;;;5019139;28;20119;-73
2022/05/09 01:51:40;;;;;;;6.55;3.70;;;18.30;94.80;;;;;;5017174;28;19944;-73
2022/05/09 01:54:06;;;;;;;6.35;3.80;;;18.30;94.90;;;;;;5016753;28;20069;-72
2022/05/09 01:56:36;;;;;;;7.70;3.58;;;18.30;95.00;;;;;;5046350;28;20374;-73
2022/05/09 01:59:04;;;;;;;7.88;3.90;;;18.30;95.10;;;;;;5051045;28;20046;-72
2022/05/09 02:01:54;;;;;;;6.55;3.67;;;18.30;95.10;;;;;;5005049;28;20377;-71
2022/05/09 02:04:20;;;;;;;6.90;3.75;;;18.30;95.10;;;;;;5004787;28;20045;-71
2022/05/09 02:06:47;;;;;;;5.50;3.30;;;18.30;95.10;;;;;;5023169;28;20064;-72
2022/05/09 02:09:13;;;;;;;6.75;3.80;;;18.30;95.10;;;;;;5015153;28;20092;-72
2022/05/09 02:11:40;;;;;;;13.18;3.58;;;18.30;95.20;;;;;;5015467;28;20412;-72
2022/05/09 02:14:06;;;;;;;10.35;4.30;;;18.20;95.30;;;;;;5046211;28;20378;-73
2022/05/09 02:16:32;;;;;;;5.05;3.42;;;18.20;95.50;;;;;;5048292;28;20052;-72
2022/05/09 02:18:58;;;;;;;6.60;3.65;;;18.10;95.60;;;;;;5018487;28;20038;-72
2022/05/09 02:21:24;;;;;;;9.13;4.18;;;18.10;95.90;;;;;;5048473;28;20099;-72
2022/05/09 02:23:50;;;;;;;6.22;4.05;;;18.00;96.20;;;;;;5012558;28;20919;-72
2022/05/09 02:26:17;;;;;;;7.22;4.45;;;18.00;96.70;;;;;;5020407;28;20073;-72
2022/05/09 02:28:43;;;;;;;7.47;4.30;;;17.90;96.90;;;;;;5034018;28;20766;-71
2022/05/09 02:31:09;;;;;;;8.77;4.05;;;17.90;97.20;;;;;;5018802;28;20137;-72
2022/05/09 02:33:35;;;;;;;9.20;4.53;;;17.90;97.80;;;;;;5019599;28;20045;-73
2022/05/09 02:36:01;;;;;;;8.13;4.75;;;17.80;98.10;;;;;;5016679;28;20033;-72
2022/05/09 02:38:28;;;;;;;8.32;4.70;;;17.80;98.20;;;;;;5013303;28;20060;-73
2022/05/09 02:40:56;;;;;;;8.73;4.20;;;17.70;98.70;;;;;;5016083;28;20479;-72
2022/05/09 02:43:22;;;;;;;12.13;4.68;;;17.70;98.90;;;;;;5012346;28;20460;-72
2022/05/09 02:45:48;;;;;;;9.30;4.38;;;17.70;99.10;;;;;;5016620;28;20511;-73
2022/05/09 02:48:16;;;;;;;8.60;4.13;;;17.60;99.10;;;;;;5014084;28;20515;-73
2022/05/09 02:50:41;;;;;;;7.18;3.88;;;17.60;99.30;;;;;;5015636;28;20034;-72
2022/05/09 02:53:10;;;;;;;9.68;4.63;;;17.50;99.50;;;;;;5046951;28;20481;-72
2022/05/09 02:55:37;;;;;;;7.68;3.78;;;17.50;99.50;;;;;;5016822;28;20376;-73
2022/05/09 02:58:04;;;;;;;7.72;3.65;;;17.50;99.40;;;;;;5017964;28;20392;-73
2022/05/09 03:00:32;;;;;;;5.97;3.22;;;17.50;99.30;;;;;;5019256;28;20034;-71
2022/05/09 03:05:45;;;;;;;8.82;4.38;;;17.70;98.90;;;;;;5025812;28;20519;-72
2022/05/09 03:08:14;;;;;;;6.68;3.92;;;17.70;99.40;;;;;;5020804;28;20128;-72
2022/05/09 03:10:42;;;;;;;6.05;3.65;;;17.60;99.60;;;;;;5014097;28;20034;-73
2022/05/09 03:13:12;;;;;;;6.72;4.40;;;17.60;99.70;;;;;;5019643;28;20041;-72
2022/05/09 03:15:41;;;;;;;9.02;4.10;;;17.60;99.90;;;;;;5017190;28;20026;-72
2022/05/09 03:18:08;;;;;;;7.47;4.43;;;17.50;99.90;;;;;;5028518;28;20046;-73
2022/05/09 03:20:36;;;;;;;8.05;4.40;;;17.50;99.90;;;;;;5018615;28;20404;-71
2022/05/09 03:23:04;;;;;;;8.65;4.22;;;17.50;99.90;;;;;;5007976;28;20171;-72
2022/05/09 03:25:31;;;;;;;9.90;3.83;;;17.50;99.90;;;;;;5051052;28;20037;-72
2022/05/09 03:27:57;;;;;;;7.80;4.20;;;17.40;99.90;;;;;;5055947;28;20555;-72
2022/05/09 03:30:25;;;;;;;7.50;4.10;;;17.40;99.90;;;;;;5052058;28;20044;-71
2022/05/09 03:32:53;;;;;;;7.63;3.78;;;17.40;99.90;;;;;;5050914;28;20152;-72
2022/05/09 03:35:19;;;;;;;5.70;2.92;;;17.40;99.90;;;;;;5053076;28;20034;-72
2022/05/09 03:37:45;;;;;;;3.75;2.22;;;17.30;99.20;;;;;;5022179;28;20446;-72
2022/05/09 03:40:12;;;;;;;4.75;2.15;;;17.20;98.70;;;;;;5053022;28;20045;-73
2022/05/09 03:42:38;;;;;;;3.60;2.13;;;17.20;98.60;;;;;;5005496;28;20121;-72
2022/05/09 03:45:05;;;;;;;4.68;2.30;;;17.20;98.50;;;;;;5049468;28;20580;-71
2022/05/09 03:47:31;;;;;;;5.22;2.22;;;17.20;98.40;;;;;;5019033;28;20126;-73
2022/05/09 03:49:57;;;;;;;5.40;2.40;;;17.30;98.20;;;;;;5052242;28;20116;-74
2022/05/09 03:52:24;;;;;;;6.60;2.30;;;17.30;98.10;;;;;;5022041;28;20050;-72
2022/05/09 03:54:50;;;;;;;8.30;2.53;;;17.30;97.90;;;;;;5050444;28;20041;-71
2022/05/09 03:57:16;;;;;;;3.95;2.30;;;17.40;97.90;;;;;;5043909;28;20128;-72
2022/05/09 03:59:42;;;;;;;4.20;2.00;;;17.40;97.80;;;;;;5020300;28;20448;-71
2022/05/09 04:02:10;;;;;;;4.50;2.10;;;17.40;97.60;;;;;;5016930;28;20045;-72
2022/05/09 04:04:36;;;;;;;4.97;2.17;;;17.50;97.40;;;;;;5022155;28;20038;-73
2022/05/09 04:07:03;;;;;;;5.85;2.42;;;17.40;97.30;;;;;;5017396;28;20037;-72
2022/05/09 04:09:29;;;;;;;6.47;2.17;;;17.40;97.30;;;;;;5020272;28;20560;-73
2022/05/09 04:11:55;;;;;;;5.72;2.40;;;17.40;97.30;;;;;;5018784;28;20080;-72
2022/05/09 04:16:49;;;;;;;4.00;2.10;;;17.40;97.40;;;;;;5051241;28;20065;-73
2022/05/09 04:17:10;;;;;;;5.63;2.28;;;17.20;97.60;;;;;;5014932;28;20037;-73
2022/05/09 04:19:39;;;;;;;5.85;2.75;;;17.20;97.70;;;;;;5050469;28;20042;-72
2022/05/09 04:22:06;;;;;;;4.70;2.40;;;17.20;97.90;;;;;;5000405;28;20389;-73
2022/05/09 04:24:33;;;;;;;4.90;2.40;;;17.10;97.90;;;;;;5021680;28;20041;-72
2022/05/09 04:27:00;;;;;;;4.97;2.67;;;17.00;98.20;;;;;;5053983;28;20099;-71
2022/05/09 04:29:26;;;;;;;4.85;2.50;;;17.10;98.30;;;;;;5017947;28;20041;-72
2022/05/09 04:31:53;;;;;;;3.97;2.28;;;17.10;98.30;;;;;;5020030;28;20042;-72
2022/05/09 04:34:19;;;;;;;5.00;2.58;;;17.00;98.40;;;;;;5019909;28;20037;-72
2022/05/09 04:36:45;;;;;;;6.65;2.60;;;17.00;98.40;;;;;;5050839;28;20032;-72
2022/05/09 04:39:11;;;;;;;7.28;2.70;;;17.00;98.50;;;;;;5019821;28;20049;-71
2022/05/09 04:41:39;;;;;;;4.10;2.50;;;17.00;98.60;;;;;;5017419;28;20107;-72
2022/05/09 04:44:05;;;;;;;6.40;2.40;;;17.00;98.40;;;;;;5021367;28;20084;-72
2022/05/09 04:46:33;;;;;;;5.95;2.80;;;16.90;98.30;;;;;;5023221;28;20071;-72
2022/05/09 04:48:59;;;;;;;4.80;2.83;;;16.90;98.90;;;;;;5047950;28;20046;-72
2022/05/09 04:51:25;;;;;;;8.50;3.40;;;17.00;98.90;;;;;;5016361;28;20115;-72
2022/05/09 04:53:51;;;;;;;5.03;3.05;;;17.00;98.90;;;;;;5021434;28;20042;-73
2022/05/09 04:56:18;;;;;;;7.22;4.70;;;16.90;98.90;;;;;;5024424;28;20393;-73
2022/05/09 04:58:44;;;;;;;8.18;2.70;;;16.90;99.10;;;;;;5017957;28;20055;-71
2022/05/09 05:01:10;;;;;;;5.75;2.45;;;17.00;99.00;;;;;;5022150;28;20060;-72
2022/05/09 05:03:36;;;;;;;3.40;2.30;;;16.90;99.00;;;;;;5023066;28;20032;-72
2022/05/09 05:06:07;;;;;;;4.97;2.65;;;16.90;99.10;;;;;;5023220;28;20030;-72
2022/05/09 05:08:36;;;;;;;7.07;2.67;;;16.90;99.20;;;;;;5021267;28;20038;-72
2022/05/09 05:11:05;;;;;;;7.50;2.85;;;16.90;99.30;;;;;;5021714;28;20053;-73
2022/05/09 05:13:35;;;;;;;5.40;2.53;;;16.90;99.30;;;;;;5018214;28;20030;-72
2022/05/09 05:16:03;;;;;;;8.98;2.78;;;16.90;99.50;;;;;;5022212;28;20033;-73
2022/05/09 05:18:32;;;;;;;5.55;2.53;;;16.90;99.70;;;;;;5018971;28;20101;-73
2022/05/09 05:20:57;;;;;;;5.10;2.60;;;16.90;99.70;;;;;;5016498;28;20061;-71
2022/05/09 05:23:24;;;;;;;6.72;2.60;;;16.90;99.70;;;;;;5018416;28;20083;-71
2022/05/09 05:25:51;;;;;;;5.93;3.22;;;16.90;99.80;;;;;;5022497;28;20092;-72
2022/05/09 05:28:17;;;;;;;5.22;3.05;;;17.00;99.80;;;;;;5053260;28;20127;-73
2022/05/09 05:30:44;;;;;;;7.03;2.90;;;17.10;99.60;;;;;;5014291;28;20085;-72
2022/05/09 05:33:10;;;;;;;6.40;3.78;;;17.20;99.40;;;;;;5052197;28;20038;-72
2022/05/09 05:35:36;;;;;;;6.63;3.40;;;17.30;99.20;;;;;;5050028;28;20029;-73
2022/05/09 05:38:02;;;;;;;6.53;3.53;;;17.50;99.10;;;;;;5017508;28;20060;-73
2022/05/09 05:40:29;;;;;;;6.22;3.20;;;17.60;98.80;;;;;;5021767;28;20414;-72
2022/05/09 05:42:55;;;;;;;8.65;3.92;;;17.70;98.70;;;;;;5051628;28;20037;-74
2022/05/09 05:45:23;;;;;;;10.85;4.28;;;17.80;98.60;;;;;;5052596;28;20615;-74
2022/05/09 05:47:50;;;;;;;6.88;4.60;;;17.90;98.50;;;;;;5013516;28;20038;-73
2022/05/09 05:50:18;;;;;;;11.55;5.90;;;18.00;98.40;;;;;;5016359;28;20054;-73
2022/05/09 05:52:44;;;;;;;10.40;5.32;;;18.10;98.30;;;;;;5048746;28;20038;-71
2022/05/09 05:55:11;;;;;;;14.85;8.45;;;18.20;98.10;;;;;;5020025;28;20041;-73
2022/05/09 05:57:40;;;;;;;12.07;7.80;;;18.40;98.00;;;;;;4999543;28;20034;-73
2022/05/09 06:00:15;;;;;;;11.23;8.20;;;18.50;97.80;;;;;;5050350;28;20909;-72
2022/05/09 06:02:41;;;;;;;12.63;9.02;;;18.60;97.70;;;;;;5019744;28;20048;-73
2022/05/09 06:05:09;;;;;;;15.77;9.65;;;18.70;97.40;;;;;;5056596;28;20037;-74
2022/05/09 06:07:36;;;;;;;13.20;9.93;;;18.90;97.40;;;;;;5026529;28;20030;-72
2022/05/09 06:10:02;;;;;;;14.68;10.82;;;19.00;97.20;;;;;;5021784;28;20512;-72
2022/05/09 06:12:28;;;;;;;14.23;9.75;;;19.10;97.10;;;;;;5023105;28;20037;-72
2022/05/09 06:17:39;;;;;;;17.23;11.30;;;19.30;96.90;;;;;;5014545;28;20044;-72
2022/05/09 06:20:11;;;;;;;15.65;11.50;;;19.50;96.90;;;;;;5029545;28;20049;-72
2022/05/09 06:22:38;;;;;;;15.93;10.63;;;19.60;96.80;;;;;;5019687;28;20034;-72
2022/05/09 06:25:10;;;;;;;13.98;9.85;;;19.70;96.70;;;;;;5028749;28;20184;-74
2022/05/09 06:27:38;;;;;;;12.15;9.10;;;19.80;96.50;;;;;;5046720;28;20041;-72
2022/05/09 06:30:07;;;;;;;10.55;8.00;;;19.90;96.40;;;;;;5046724;28;20057;-73
2022/05/09 06:32:33;;;;;;;11.82;7.30;;;20.10;96.30;;;;;;5016627;28;20092;-74
2022/05/09 06:35:01;;;;;;;12.82;6.78;;;20.20;96.10;;;;;;5023511;28;20046;-75
2022/05/09 06:37:29;;;;;;;11.68;5.80;;;20.30;96.00;;;;;;5017611;28;20111;-73
2022/05/09 06:39:55;;;;;;;12.57;5.78;;;20.40;95.80;;;;;;5020592;28;20037;-73
2022/05/09 06:42:21;;;;;;;8.23;5.50;;;20.60;95.60;;;;;;5015816;28;20069;-72
2022/05/09 06:44:48;;;;;;;10.73;5.18;;;20.70;95.40;;;;;;5016474;28;20046;-73
2022/05/09 06:47:14;;;;;;;13.80;4.15;;;20.90;95.20;;;;;;5033116;28;20040;-72
2022/05/09 06:49:41;;;;;;;7.88;4.20;;;20.90;95.20;;;;;;5027803;28;20049;-73
2022/05/09 06:52:07;;;;;;;8.45;4.43;;;20.90;95.10;;;;;;5019658;28;20704;-75
2022/05/09 06:54:33;;;;;;;7.55;3.25;;;20.80;95.30;;;;;;5049324;28;20096;-73
2022/05/09 06:56:58;;;;;;;5.57;3.10;;;20.60;95.00;;;;;;5049449;28;20045;-73
2022/05/09 06:59:24;;;;;;;6.07;3.30;;;20.50;95.10;;;;;;5011913;28;20092;-73
2022/05/09 07:01:50;;;;;;;10.00;3.53;;;20.40;95.30;;;;;;5051153;28;20042;-72
2022/05/09 07:04:17;;;;;;;9.65;3.45;;;20.30;95.30;;;;;;5019125;28;20045;-73
2022/05/09 07:06:43;;;;;;;4.15;2.90;;;20.10;95.50;;;;;;4993231;28;20088;-72
2022/05/09 07:09:11;;;;;;;9.52;3.40;;;20.10;95.60;;;;;;4992930;28;20133;-71
2022/05/09 07:11:39;;;;;;;9.57;3.50;;;20.00;95.70;;;;;;5004843;28;20033;-72
2022/05/09 07:14:06;;;;;;;12.73;3.25;;;20.00;95.80;;;;;;5021731;28;20099;-72
2022/05/09 07:16:31;;;;;;;6.50;3.22;;;20.00;95.80;;;;;;5036711;28;20029;-72
2022/05/09 07:19:01;;;;;;;6.63;3.17;;;20.00;95.80;;;;;;5002350;28;20041;-72
2022/05/09 07:21:27;;;;;;;8.00;3.20;;;20.10;95.70;;;;;;5009588;28;20036;-72
2022/05/09 07:23:53;;;;;;;8.10;2.97;;;20.30;95.50;;;;;;5018231;28;20038;-72
2022/05/09 07:26:19;;;;;;;6.47;2.85;;;20.50;95.30;;;;;;5013513;28;20118;-72
2022/05/09 07:28:46;;;;;;;8.35;3.00;;;20.80;95.10;;;;;;5016591;28;20501;-72
2022/05/09 07:31:13;;;;;;;6.80;2.80;;;21.00;94.60;;;;;;5014913;28;20065;-71
2022/05/09 07:33:39;;;;;;;7.10;2.40;;;21.30;94.20;;;;;;5009229;28;20445;-73
2022/05/09 07:36:05;;;;;;;8.80;2.42;;;21.50;93.80;;;;;;5044226;28;20034;-73
2022/05/09 07:38:31;;;;;;;12.40;2.60;;;21.60;93.50;;;;;;5012710;28;20117;-73
2022/05/09 07:40:58;;;;;;;6.43;2.50;;;21.80;93.40;;;;;;5017638;28;20546;-72
2022/05/09 07:43:28;;;;;;;2.97;2.15;;;21.90;93.10;;;;;;5013431;28;20482;-73
2022/05/09 07:45:56;;;;;;;5.22;2.22;;;21.90;92.80;;;;;;5013703;28;20038;-72
2022/05/09 07:48:24;;;;;;;5.13;2.10;;;21.90;92.50;;;;;;5016255;28;20042;-73
2022/05/09 07:50:51;;;;;;;5.82;2.00;;;22.00;92.50;;;;;;5023011;28;20037;-71
2022/05/09 07:53:21;;;;;;;3.72;2.67;;;22.10;92.50;;;;;;5013127;28;20721;-73
2022/05/09 07:55:47;;;;;;;3.25;2.10;;;22.10;92.40;;;;;;5020566;28;20129;-74
2022/05/09 07:58:14;;;;;;;5.40;2.40;;;22.10;92.30;;;;;;5016827;28;20076;-73
2022/05/09 08:00:42;;;;;;;3.20;2.00;;;22.10;92.20;;;;;;5017974;28;20088;-73
2022/05/09 08:03:16;;;;;;;3.03;2.13;;;22.10;92.30;;;;;;5019064;28;20053;-74
2022/05/09 08:05:44;;;;;;;3.78;2.22;;;22.20;92.50;;;;;;5015022;28;20037;-73
2022/05/09 08:08:12;;;;;;;4.07;2.53;;;22.20;92.40;;;;;;5045425;28;20045;-73
2022/05/09 08:10:39;;;;;;;6.05;2.40;;;22.20;92.30;;;;;;5017669;28;20156;-72
2022/05/09 08:13:07;;;;;;;5.28;2.47;;;22.30;92.30;;;;;;5019843;28;20026;-72
2022/05/09 08:15:35;;;;;;;6.22;2.70;;;22.30;92.30;;;;;;5020047;28;20087;-74
2022/05/09 08:18:03;;;;;;;4.28;2.40;;;22.30;92.30;;;;;;5049532;28;20080;-73
2022/05/09 08:20:33;;;;;;;6.60;2.13;;;22.30;92.40;;;;;;5019800;28;20394;-73
2022/05/09 08:23:09;;;;;;;5.72;2.42;;;22.50;92.20;;;;;;5018431;28;20041;-72
2022/05/09 08:25:37;;;;;;;5.70;2.05;;;22.50;92.00;;;;;;5025963;28;20033;-72
2022/05/09 08:28:07;;;;;;;3.97;1.98;;;22.60;91.90;;;;;;5016000;28;20034;-73
2022/05/09 08:30:34;;;;;;;7.97;2.25;;;22.70;91.80;;;;;;5032984;28;20037;-73
2022/05/09 08:33:02;;;;;;;7.65;2.58;;;23.20;91.60;;;;;;5017296;28;20412;-73
2022/05/09 08:35:29;;;;;;;5.13;2.40;;;24.90;90.30;;;;;;5017291;28;20042;-73
2022/05/09 08:37:55;;;;;;;7.78;2.63;;;26.30;88.70;;;;;;5050823;28;20037;-73
2022/05/09 08:41:02;;;;;;;5.07;2.38;;;27.50;86.20;;;;;;5049529;28;20486;-72
2022/05/09 08:43:34;;;;;;;9.48;2.55;;;28.20;84.70;;;;;;5015480;28;20086;-73
2022/05/09 08:46:29;;;;;;;6.57;2.28;;;28.70;83.10;;;;;;5055895;28;20044;-72
2022/05/09 08:49:02;;;;;;;8.25;2.33;;;28.80;82.30;;;;;;5019053;28;20045;-73
2022/05/09 08:51:40;;;;;;;4.18;2.20;;;29.10;81.60;;;;;;5019941;28;20041;-74
2022/05/09 08:54:09;;;;;;;7.00;2.55;;;29.00;81.20;;;;;;5052003;28;20056;-73
2022/05/09 08:56:38;;;;;;;5.30;2.45;;;29.40;80.70;;;;;;5048868;28;20045;-72
2022/05/09 08:59:11;;;;;;;8.18;2.65;;;29.50;80.60;;;;;;5048829;28;20528;-72
2022/05/09 09:01:48;;;;;;;6.55;2.50;;;29.70;80.40;;;;;;5053052;28;20029;-72
2022/05/09 09:04:24;;;;;;;11.13;2.75;;;29.70;80.30;;;;;;5025282;28;20131;-71
2022/05/09 09:07:18;;;;;;;7.63;2.92;;;30.00;79.50;;;;;;5022017;28;20057;-72
2022/05/09 09:10:21;;;;;;;9.02;2.80;;;29.90;79.30;;;;;;5044963;28;20112;-72
2022/05/09 09:13:19;;;;;;;11.43;3.65;;;29.70;79.60;;;;;;5015246;28;20072;-73
2022/05/09 09:16:20;;;;;;;6.43;3.20;;;28.40;81.10;;;;;;5016769;28;20136;-72
2022/05/09 09:19:07;;;;;;;7.30;2.65;;;28.90;80.60;;;;;;4990592;28;20030;-72
2022/05/09 09:21:51;;;;;;;6.40;2.03;;;29.70;79.40;;;;;;5014079;28;20029;-72
2022/05/09 09:24:54;;;;;;;3.92;1.80;;;30.40;79.00;;;;;;5050161;28;20034;-72
2022/05/09 09:27:41;;;;;;;5.00;2.22;;;30.40;78.20;;;;;;5047927;28;20025;-74
2022/05/09 09:30:21;;;;;;;6.90;2.33;;;30.70;77.70;;;;;;5049594;28;20565;-72
2022/05/09 09:33:09;;;;;;;5.03;1.70;;;30.80;78.20;;;;;;5014077;28;21898;-74
2022/05/09 09:35:50;;;;;;;4.45;1.80;;;30.50;78.70;;;;;;5030641;28;20485;-74
2022/05/09 09:38:35;;;;;;;3.80;1.63;;;30.50;77.50;;;;;;5015279;28;20049;-75
2022/05/09 09:41:16;;;;;;;3.42;1.88;;;30.50;77.50;;;;;;5047556;28;20042;-72
2022/05/09 09:43:43;;;;;;;4.80;2.13;;;30.70;77.70;;;;;;5023948;28;20038;-73
2022/05/09 09:46:10;;;;;;;7.72;2.08;;;31.20;77.10;;;;;;5013194;28;20037;-73
2022/05/09 09:48:37;;;;;;;4.35;1.90;;;31.40;76.40;;;;;;5017474;28;20124;-73
2022/05/09 09:51:12;;;;;;;2.83;1.80;;;31.40;76.20;;;;;;5048775;28;20072;-72
2022/05/09 09:53:50;;;;;;;5.32;2.00;;;30.70;76.20;;;;;;5014502;28;20515;-73
2022/05/09 09:56:22;;;;;;;8.95;2.35;;;30.20;77.20;;;;;;5019731;28;20034;-73
2022/05/09 09:58:52;;;;;;;4.07;2.13;;;29.70;77.90;;;;;;5044171;28;20034;-72
2022/05/09 10:01:25;;;;;;;4.57;2.30;;;29.50;77.90;;;;;;5016383;28;20048;-73
2022/05/09 10:04:25;;;;;;;5.70;2.00;;;29.60;78.30;;;;;;5016988;28;20034;-73
2022/05/09 10:07:04;;;;;;;8.23;2.67;;;30.10;78.30;;;;;;5020294;28;20037;-73
2022/05/09 10:09:40;;;;;;;5.88;2.05;;;30.50;77.70;;;;;;5011966;28;20488;-73
2022/05/09 10:12:18;;;;;;;5.60;2.25;;;30.70;77.40;;;;;;5006790;28;20038;-73
2022/05/09 10:14:45;;;;;;;4.60;2.22;;;30.30;77.50;;;;;;5008681;28;20032;-73
2022/05/09 10:17:25;;;;;;;16.50;2.90;;;30.60;77.30;;;;;;5045633;28;20653;-73
2022/05/09 10:19:56;;;;;;;6.20;2.00;;;30.10;77.40;;;;;;5045387;28;20468;-74
2022/05/09 10:25:28;;;;;;;4.75;2.20;;;29.90;77.80;;;;;;5016932;28;20052;-74
2022/05/09 10:28:12;;;;;;;6.63;2.28;;;30.20;78.20;;;;;;5009662;28;20091;-74
2022/05/09 10:30:43;;;;;;;4.20;1.90;;;29.80;78.10;;;;;;5014727;28;20033;-73
2022/05/09 10:33:32;;;;;;;8.63;2.33;;;29.30;78.00;;;;;;5012738;28;20542;-72
2022/05/09 10:36:08;;;;;;;3.72;2.00;;;29.20;78.60;;;;;;5013930;28;20121;-73
2022/05/09 10:38:48;;;;;;;9.02;2.70;;;29.60;78.50;;;;;;5013980;28;20037;-72
2022/05/09 10:41:30;;;;;;;8.75;2.60;;;29.80;78.20;;;;;;5014357;28;20150;-72
2022/05/09 10:44:10;;;;;;;6.53;2.40;;;29.20;78.30;;;;;;5044762;28;20499;-73
2022/05/09 10:46:48;;;;;;;6.97;2.63;;;28.60;79.20;;;;;;5041204;28;20122;-72
2022/05/09 10:49:21;;;;;;;4.72;2.53;;;28.30;79.40;;;;;;5029126;28;20057;-73
2022/05/09 10:51:50;;;;;;;5.22;2.58;;;27.90;80.10;;;;;;5047049;28;20045;-73
2022/05/09 10:54:42;;;;;;;8.45;2.70;;;28.10;80.70;;;;;;5047652;28;20139;-72
2022/05/09 10:57:25;;;;;;;7.25;2.97;;;28.50;80.70;;;;;;5016040;28;20030;-73
2022/05/09 10:59:59;;;;;;;5.80;2.70;;;28.60;80.60;;;;;;5016696;28;20063;-72
2022/05/09 11:02:33;;;;;;;7.20;2.95;;;28.20;80.70;;;;;;5000427;28;20520;-73
2022/05/09 11:04:59;;;;;;;4.50;2.80;;;27.80;81.40;;;;;;4984977;28;20038;-72
2022/05/09 11:07:39;;;;;;;6.82;3.42;;;28.10;82.00;;;;;;5003257;28;20045;-72
2022/05/09 11:10:18;;;;;;;14.25;4.07;;;28.20;82.30;;;;;;5000863;28;20045;-73
2022/05/09 11:13:14;;;;;;;11.85;3.53;;;27.70;81.80;;;;;;5003170;28;20041;-73
2022/05/09 11:16:06;;;;;;;6.63;3.38;;;27.50;82.50;;;;;;5000133;28;20460;-73
2022/05/09 11:18:56;;;;;;;5.65;3.17;;;27.70;83.20;;;;;;5000967;28;20502;-72
2022/05/09 11:21:41;;;;;;;7.22;3.20;;;27.90;83.30;;;;;;5038251;28;20095;-74
2022/05/09 11:24:15;;;;;;;5.60;2.72;;;27.60;82.70;;;;;;4998184;28;20606;-72
2022/05/09 11:27:00;;;;;;;5.05;3.05;;;27.60;81.90;;;;;;5031252;28;20076;-73
2022/05/09 11:29:35;;;;;;;7.28;3.00;;;28.40;82.00;;;;;;4998848;28;27105;-72
2022/05/09 11:32:06;;;;;;;16.20;3.70;;;28.70;81.60;;;;;;5034842;28;20042;-72
2022/05/09 11:34:32;;;;;;;7.38;3.15;;;29.20;80.80;;;;;;5011745;28;20481;-74
2022/05/09 11:37:22;;;;;;;4.97;2.83;;;29.30;80.40;;;;;;5031832;28;20044;-72
2022/05/09 11:40:12;;;;;;;6.15;3.40;;;29.30;80.80;;;;;;5016101;28;20161;-74
2022/05/09 11:46:01;;;;;;;7.88;3.20;;;29.30;80.80;;;;;;5011231;28;20125;-73
2022/05/09 11:48:45;;;;;;;5.65;3.10;;;29.20;80.10;;;;;;5000484;28;20495;-73
2022/05/09 11:51:43;;;;;;;10.13;3.75;;;28.40;80.20;;;;;;5001699;28;20041;-72
2022/05/09 11:54:25;;;;;;;5.93;3.63;;;28.70;80.70;;;;;;5000102;28;20034;-74
2022/05/09 11:56:53;;;;;;;;;;;28.90;80.60;;;;;;5002899;28;20080;-73
2022/05/09 11:59:29;;;;;;;6.38;3.10;;;29.10;80.50;;;;;;5040384;28;19929;-72
2022/05/09 12:02:06;;;;;;;9.07;4.22;;;29.60;80.70;;;;;;5006714;28;20045;-74
2022/05/09 12:04:49;;;;;;;7.07;3.95;;;29.60;80.70;;;;;;4983702;28;20097;-73
2022/05/09 12:07:27;;;;;;;5.05;3.20;;;28.90;81.60;;;;;;4995886;28;20034;-75
2022/05/09 12:10:03;;;;;;;5.10;3.53;;;28.50;82.10;;;;;;4997354;28;20030;-73
2022/05/09 12:12:41;;;;;;;7.50;3.45;;;28.90;82.50;;;;;;5003656;28;20214;-73
2022/05/09 12:15:15;;;;;;;6.32;3.90;;;28.70;82.40;;;;;;5034977;28;20044;-75
2022/05/09 12:17:50;;;;;;;7.05;3.70;;;28.90;83.00;;;;;;5036111;28;20654;-73
2022/05/09 12:20:29;;;;;;;9.00;4.45;;;30.10;82.20;;;;;;5005775;28;20103;-73
2022/05/09 12:22:58;;;;;;;7.70;4.20;;;30.00;82.00;;;;;;5003688;28;21324;-71
2022/05/09 12:25:36;;;;;;;5.20;3.58;;;30.30;81.70;;;;;;5006064;28;20095;-73
2022/05/09 12:28:25;;;;;;;12.63;3.40;;;30.70;81.50;;;;;;5003037;28;20069;-72
2022/05/09 12:31:01;;;;;;;5.78;3.95;;;30.80;81.00;;;;;;5012811;28;20087;-73
2022/05/09 12:34:03;;;;;;;6.57;4.15;;;30.70;81.20;;;;;;4997657;28;20966;-73
2022/05/09 12:36:34;;;;;;;;;;;30.00;81.60;;;;;;4983483;28;20529;-76
2022/05/09 12:39:16;;;;;;;9.55;3.65;;;29.80;82.50;;;;;;5035289;28;19913;-73
2022/05/09 12:41:52;;;;;;;6.53;3.55;;;28.90;82.60;;;;;;5000893;28;20037;-73
2022/05/09 12:44:23;;;;;;;8.43;3.60;;;29.70;83.20;;;;;;5032518;28;20222;-74
2022/05/09 12:47:00;;;;;;;4.57;3.10;;;30.20;81.80;;;;;;5008950;28;20112;-72
2022/05/09 12:49:34;;;;;;;6.82;3.15;;;29.80;81.10;;;;;;5002850;28;20041;-74
2022/05/09 12:52:00;;;;;;;5.00;2.78;;;29.40;82.50;;;;;;5008536;28;20046;-72
2022/05/09 12:54:29;;;;;;;8.23;3.78;;;29.60;81.90;;;;;;5008422;28;20055;-73
2022/05/09 12:56:59;;;;;;;5.32;3.10;;;30.00;81.90;;;;;;5000830;28;20504;-74
2022/05/09 12:59:44;;;;;;;5.78;2.95;;;30.10;81.60;;;;;;5019543;28;21941;-74
2022/05/09 13:02:20;;;;;;;5.95;3.00;;;30.50;81.20;;;;;;5024392;28;20048;-74
2022/05/09 13:04:49;;;;;;;5.78;3.00;;;29.60;82.00;;;;;;5013714;28;20159;-74
2022/05/09 13:07:16;;;;;;;7.35;2.75;;;29.80;81.20;;;;;;5006574;28;20049;-75
2022/05/09 13:09:54;;;;;;;4.88;2.58;;;28.90;81.70;;;;;;5038298;28;20987;-73
2022/05/09 13:12:29;;;;;;;3.78;2.67;;;29.00;82.20;;;;;;4988849;28;20041;-72
2022/05/09 13:15:06;;;;;;;8.35;3.20;;;29.30;81.40;;;;;;5045615;28;20041;-74
2022/05/09 13:17:41;;;;;;;4.50;2.50;;;28.40;82.90;;;;;;5008090;28;20134;-73
2022/05/09 13:20:13;;;;;;;6.68;2.45;;;28.80;82.60;;;;;;4998556;28;20597;-73
2022/05/09 13:22:54;;;;;;;5.53;2.80;;;29.60;81.80;;;;;;5035727;28;20080;-74